sensor_id;sensor_type;location;lat;lon;timestamp;pressure;altitude;pressure_sealevel;temperature;humidity
73240;BME280;61452;40.054;4.110;2023-12-22T00:03:45;102107.53;;;16.56;100.00
73240;BME280;61452;40.054;4.110;2023-12-22T00:08:47;102106.69;;;16.56;100.00
73240;BME280;61452;40.054;4.110;2023-12-22T00:13:50;102102.31;;;16.55;100.00
73240;BME280;61452;40.054;4.110;2023-12-22T00:18:52;102088.22;;;16.54;100.00
73240;BME280;61452;40.054;4.110;2023-12-22T00:23:55;102094.38;;;16.55;100.00
73240;BME280;61452;40.054;4.110;2023-12-22T00:28:58;102082.22;;;16.51;100.00
73240;BME280;61452;40.054;4.110;2023-12-22T00:34:00;102097.88;;;16.55;100.00
73240;BME280;61452;40.054;4.110;2023-12-22T00:39:03;102068.75;;;16.55;100.00
73240;BME280;61452;40.054;4.110;2023-12-22T00:44:05;102066.94;;;16.56;100.00
73240;BME280;61452;40.054;4.110;2023-12-22T00:49:07;102055.50;;;16.55;100.00
73240;BME280;61452;40.054;4.110;2023-12-22T00:54:09;102051.22;;;16.53;100.00
73240;BME280;61452;40.054;4.110;2023-12-22T00:59:11;102067.81;;;16.56;100.00
73240;BME280;61452;40.054;4.110;2023-12-22T01:04:15;102059.06;;;16.54;100.00
73240;BME280;61452;40.054;4.110;2023-12-22T01:09:17;102058.41;;;16.51;100.00
73240;BME280;61452;40.054;4.110;2023-12-22T01:14:21;102057.22;;;16.56;100.00
73240;BME280;61452;40.054;4.110;2023-12-22T01:19:23;102055.50;;;16.55;100.00
73240;BME280;61452;40.054;4.110;2023-12-22T01:24:25;102040.47;;;16.56;100.00
73240;BME280;61452;40.054;4.110;2023-12-22T01:29:27;102059.06;;;16.54;100.00
73240;BME280;61452;40.054;4.110;2023-12-22T01:34:29;102079.34;;;16.55;100.00
73240;BME280;61452;40.054;4.110;2023-12-22T01:39:31;102093.44;;;16.56;100.00
73240;BME280;61452;40.054;4.110;2023-12-22T01:44:33;102097.81;;;16.57;100.00
73240;BME280;61452;40.054;4.110;2023-12-22T01:49:35;102074.91;;;16.56;100.00
73240;BME280;61452;40.054;4.110;2023-12-22T01:54:38;102098.66;;;16.57;100.00
73240;BME280;61452;40.054;4.110;2023-12-22T01:59:41;102112.91;;;16.55;100.00
73240;BME280;61452;40.054;4.110;2023-12-22T02:04:44;102112.03;;;16.54;100.00
73240;BME280;61452;40.054;4.110;2023-12-22T02:09:46;102110.38;;;16.53;100.00
73240;BME280;61452;40.054;4.110;2023-12-22T02:14:48;102117.34;;;16.54;100.00
73240;BME280;61452;40.054;4.110;2023-12-22T02:19:51;102139.31;;;16.56;100.00
73240;BME280;61452;40.054;4.110;2023-12-22T02:24:55;102154.28;;;16.57;100.00
73240;BME280;61452;40.054;4.110;2023-12-22T02:30:07;102166.59;;;16.58;100.00
73240;BME280;61452;40.054;4.110;2023-12-22T02:35:13;102168.47;;;16.56;100.00
73240;BME280;61452;40.054;4.110;2023-12-22T02:40:16;102161.38;;;16.57;100.00
73240;BME280;61452;40.054;4.110;2023-12-22T02:45:19;102160.59;;;16.55;100.00
73240;BME280;61452;40.054;4.110;2023-12-22T02:50:22;102162.31;;;16.56;100.00
73240;BME280;61452;40.054;4.110;2023-12-22T02:55:24;102164.19;;;16.54;100.00
73240;BME280;61452;40.054;4.110;2023-12-22T03:00:26;102170.19;;;16.57;100.00
73240;BME280;61452;40.054;4.110;2023-12-22T03:05:28;102153.34;;;16.58;100.00
73240;BME280;61452;40.054;4.110;2023-12-22T03:10:30;102170.09;;;16.59;100.00
73240;BME280;61452;40.054;4.110;2023-12-22T03:15:32;102168.38;;;16.58;100.00
73240;BME280;61452;40.054;4.110;2023-12-22T03:20:34;102166.66;;;16.57;100.00
73240;BME280;61452;40.054;4.110;2023-12-22T03:25:36;102172.84;;;16.57;100.00
73240;BME280;61452;40.054;4.110;2023-12-22T03:30:38;102187.00;;;16.56;100.00
73240;BME280;61452;40.054;4.110;2023-12-22T03:35:40;102180.78;;;16.57;100.00
73240;BME280;61452;40.054;4.110;2023-12-22T03:40:42;102193.06;;;16.60;100.00
73240;BME280;61452;40.054;4.110;2023-12-22T03:45:44;102207.13;;;16.61;100.00
73240;BME280;61452;40.054;4.110;2023-12-22T03:50:46;102217.88;;;16.57;100.00
73240;BME280;61452;40.054;4.110;2023-12-22T03:55:48;102199.31;;;16.57;100.00
73240;BME280;61452;40.054;4.110;2023-12-22T04:00:50;102200.19;;;16.58;100.00
73240;BME280;61452;40.054;4.110;2023-12-22T04:05:52;102200.19;;;16.58;100.00
73240;BME280;61452;40.054;4.110;2023-12-22T04:10:55;102193.16;;;16.57;100.00
73240;BME280;61452;40.054;4.110;2023-12-22T04:15:57;102196.47;;;16.62;100.00
73240;BME280;61452;40.054;4.110;2023-12-22T04:20:59;102186.78;;;16.61;100.00
73240;BME280;61452;40.054;4.110;2023-12-22T04:26:01;102171.88;;;16.60;100.00
73240;BME280;61452;40.054;4.110;2023-12-22T04:31:04;102125.16;;;16.57;100.00
73240;BME280;61452;40.054;4.110;2023-12-22T04:36:08;102137.53;;;16.57;100.00
73240;BME280;61452;40.054;4.110;2023-12-22T04:41:10;102133.91;;;16.60;100.00
73240;BME280;61452;40.054;4.110;2023-12-22T04:46:12;102115.38;;;16.60;100.00
73240;BME280;61452;40.054;4.110;2023-12-22T04:51:14;102114.34;;;16.62;100.00
73240;BME280;61452;40.054;4.110;2023-12-22T04:56:16;102117.91;;;16.61;100.00
73240;BME280;61452;40.054;4.110;2023-12-22T05:01:18;102118.88;;;16.60;100.00
73240;BME280;61452;40.054;4.110;2023-12-22T05:06:21;102119.84;;;16.57;100.00
73240;BME280;61452;40.054;4.110;2023-12-22T05:11:23;102117.13;;;16.59;100.00
73240;BME280;61452;40.054;4.110;2023-12-22T05:16:25;102126.88;;;16.58;100.00
73240;BME280;61452;40.054;4.110;2023-12-22T05:21:27;102127.72;;;16.59;100.00
73240;BME280;61452;40.054;4.110;2023-12-22T05:26:32;102119.78;;;16.59;100.00
73240;BME280;61452;40.054;4.110;2023-12-22T05:31:34;102135.59;;;16.61;100.00
73240;BME280;61452;40.054;4.110;2023-12-22T05:36:36;102148.91;;;16.59;100.00
73240;BME280;61452;40.054;4.110;2023-12-22T05:41:38;102136.56;;;16.60;100.00
73240;BME280;61452;40.054;4.110;2023-12-22T05:46:40;102133.03;;;16.59;100.00
73240;BME280;61452;40.054;4.110;2023-12-22T05:51:43;102125.16;;;16.57;100.00
73240;BME280;61452;40.054;4.110;2023-12-22T05:56:45;102126.88;;;16.58;100.00
73240;BME280;61452;40.054;4.110;2023-12-22T06:01:47;102136.47;;;16.61;100.00
73240;BME280;61452;40.054;4.110;2023-12-22T06:06:49;102129.47;;;16.60;100.00
73240;BME280;61452;40.054;4.110;2023-12-22T06:11:51;102136.47;;;16.61;100.00
73240;BME280;61452;40.054;4.110;2023-12-22T06:16:54;102139.25;;;16.58;100.00
73240;BME280;61452;40.054;4.110;2023-12-22T06:21:58;102139.25;;;16.58;100.00
73240;BME280;61452;40.054;4.110;2023-12-22T06:27:01;102147.16;;;16.60;100.00
73240;BME280;61452;40.054;4.110;2023-12-22T06:32:04;102141.97;;;16.56;100.00
73240;BME280;61452;40.054;4.110;2023-12-22T06:37:08;102141.03;;;16.57;100.00
73240;BME280;61452;40.054;4.110;2023-12-22T06:42:10;102136.56;;;16.60;100.00
73240;BME280;61452;40.054;4.110;2023-12-22T06:47:14;102149.00;;;16.57;100.00
73240;BME280;61452;40.054;4.110;2023-12-22T06:52:16;102162.22;;;16.57;100.00
73240;BME280;61452;40.054;4.110;2023-12-22T06:57:18;102179.00;;;16.58;100.00
73240;BME280;61452;40.054;4.110;2023-12-22T07:02:22;102199.31;;;16.57;100.00
73240;BME280;61452;40.054;4.110;2023-12-22T07:07:26;102199.47;;;16.54;100.00
73240;BME280;61452;40.054;4.110;2023-12-22T07:12:28;102209.97;;;16.56;100.00
73240;BME280;61452;40.054;4.110;2023-12-22T07:17:32;102218.78;;;16.56;100.00
73240;BME280;61452;40.054;4.110;2023-12-22T07:22:34;102206.34;;;16.58;100.00
73240;BME280;61452;40.054;4.110;2023-12-22T07:27:37;102208.97;;;16.58;100.00
73240;BME280;61452;40.054;4.110;2023-12-22T07:32:39;102214.28;;;16.58;100.00
73240;BME280;61452;40.054;4.110;2023-12-22T07:37:42;102218.78;;;16.56;100.00
73240;BME280;61452;40.054;4.110;2023-12-22T07:42:44;102224.09;;;16.56;100.00
73240;BME280;61452;40.054;4.110;2023-12-22T07:47:46;102229.38;;;16.56;100.00
73240;BME280;61452;40.054;4.110;2023-12-22T07:52:48;102234.56;;;16.60;100.00
73240;BME280;61452;40.054;4.110;2023-12-22T07:57:52;102254.81;;;16.61;100.00
73240;BME280;61452;40.054;4.110;2023-12-22T08:02:54;102265.53;;;16.57;100.00
73240;BME280;61452;40.054;4.110;2023-12-22T08:07:56;102280.56;;;16.57;100.00
73240;BME280;61452;40.054;4.110;2023-12-22T08:12:58;102289.44;;;16.56;100.00
73240;BME280;61452;40.054;4.110;2023-12-22T08:18:00;102292.09;;;16.56;100.00
73240;BME280;61452;40.054;4.110;2023-12-22T08:23:03;102272.63;;;16.57;100.00
73240;BME280;61452;40.054;4.110;2023-12-22T08:28:11;102275.22;;;16.58;100.00
73240;BME280;61452;40.054;4.110;2023-12-22T08:33:15;102288.47;;;16.58;100.00
73240;BME280;61452;40.054;4.110;2023-12-22T08:38:17;102284.91;;;16.60;100.00
73240;BME280;61452;40.054;4.110;2023-12-22T08:43:20;102291.16;;;16.57;100.00
73240;BME280;61452;40.054;4.110;2023-12-22T08:48:22;102285.81;;;16.58;100.00
73240;BME280;61452;40.054;4.110;2023-12-22T08:53:24;102307.00;;;16.58;100.00
73240;BME280;61452;40.054;4.110;2023-12-22T08:58:27;102299.91;;;16.59;100.00
73240;BME280;61452;40.054;4.110;2023-12-22T09:03:33;102295.50;;;16.60;100.00
73240;BME280;61452;40.054;4.110;2023-12-22T09:08:35;102305.16;;;16.61;100.00
73240;BME280;61452;40.054;4.110;2023-12-22T09:13:37;102320.22;;;16.60;100.00
73240;BME280;61452;40.054;4.110;2023-12-22T09:18:41;102326.41;;;16.59;100.00
73240;BME280;61452;40.054;4.110;2023-12-22T09:23:45;102330.03;;;16.56;100.00
73240;BME280;61452;40.054;4.110;2023-12-22T09:28:48;102337.06;;;16.57;100.00
73240;BME280;61452;40.054;4.110;2023-12-22T09:33:50;102372.34;;;16.60;100.00
73240;BME280;61452;40.054;4.110;2023-12-22T09:38:52;102374.97;;;16.60;100.00
73240;BME280;61452;40.054;4.110;2023-12-22T09:43:56;102371.31;;;16.62;100.00
73240;BME280;61452;40.054;4.110;2023-12-22T09:48:59;102368.78;;;16.59;100.00
73240;BME280;61452;40.054;4.110;2023-12-22T09:54:04;102368.06;;;16.55;100.00
73240;BME280;61452;40.054;4.110;2023-12-22T09:59:07;102394.66;;;16.54;100.00
73240;BME280;61452;40.054;4.110;2023-12-22T10:04:09;102373.22;;;16.58;100.00
73240;BME280;61452;40.054;4.110;2023-12-22T10:09:12;102393.56;;;16.58;100.00
73240;BME280;61452;40.054;4.110;2023-12-22T10:14:16;102397.94;;;16.59;100.00
73240;BME280;61452;40.054;4.110;2023-12-22T10:19:24;102409.41;;;16.60;100.00
73240;BME280;61452;40.054;4.110;2023-12-22T10:24:45;102397.13;;;16.57;100.00
73240;BME280;61452;40.054;4.110;2023-12-22T10:29:56;102396.22;;;16.58;100.00
73240;BME280;61452;40.054;4.110;2023-12-22T10:34:58;102397.13;;;16.57;100.00
73240;BME280;61452;40.054;4.110;2023-12-22T10:40:04;102376.81;;;16.57;100.00
73240;BME280;61452;40.054;4.110;2023-12-22T10:45:06;102363.56;;;16.57;100.00
73240;BME280;61452;40.054;4.110;2023-12-22T10:50:11;102365.25;;;16.60;100.00
73240;BME280;61452;40.054;4.110;2023-12-22T10:55:15;102358.13;;;16.61;100.00
73240;BME280;61452;40.054;4.110;2023-12-22T11:00:20;102346.69;;;16.60;100.00
73240;BME280;61452;40.054;4.110;2023-12-22T11:05:24;102340.53;;;16.60;100.00
73240;BME280;61452;40.054;4.110;2023-12-22T11:10:30;102344.06;;;16.60;100.00
73240;BME280;61452;40.054;4.110;2023-12-22T11:15:33;102341.41;;;16.60;100.00
73240;BME280;61452;40.054;4.110;2023-12-22T11:20:37;102324.53;;;16.61;100.00
73240;BME280;61452;40.054;4.110;2023-12-22T11:25:40;102313.88;;;16.63;100.00
73240;BME280;61452;40.054;4.110;2023-12-22T11:30:44;102300.63;;;16.63;100.00
73240;BME280;61452;40.054;4.110;2023-12-22T11:35:55;102300.72;;;16.61;100.00
73240;BME280;61452;40.054;4.110;2023-12-22T11:41:00;102282.16;;;16.61;100.00
73240;BME280;61452;40.054;4.110;2023-12-22T11:46:03;102284.03;;;16.59;100.00
73240;BME280;61452;40.054;4.110;2023-12-22T11:51:15;102278.72;;;16.59;100.00
73240;BME280;61452;40.054;4.110;2023-12-22T11:56:17;102269.78;;;16.62;100.00
73240;BME280;61452;40.054;4.110;2023-12-22T12:01:24;102260.91;;;16.63;100.00
73240;BME280;61452;40.054;4.110;2023-12-22T12:17:09;102255.59;;;16.63;100.00
73240;BME280;61452;40.054;4.110;2023-12-22T12:22:14;102249.38;;;16.64;100.00
73240;BME280;61452;40.054;4.110;2023-12-22T12:27:20;102236.06;;;16.65;100.00
73240;BME280;61452;40.054;4.110;2023-12-22T12:32:23;102242.34;;;16.63;100.00
73240;BME280;61452;40.054;4.110;2023-12-22T12:37:26;102242.22;;;16.66;100.00
73240;BME280;61452;40.054;4.110;2023-12-22T12:42:29;102240.44;;;16.66;100.00
73240;BME280;61452;40.054;4.110;2023-12-22T12:47:33;102221.03;;;16.66;100.00
73240;BME280;61452;40.054;4.110;2023-12-22T12:52:35;102235.19;;;16.65;100.00
73240;BME280;61452;40.054;4.110;2023-12-22T12:57:38;102222.03;;;16.63;100.00
73240;BME280;61452;40.054;4.110;2023-12-22T13:02:40;102227.31;;;16.63;100.00
73240;BME280;61452;40.054;4.110;2023-12-22T13:07:42;102231.75;;;16.63;100.00
73240;BME280;61452;40.054;4.110;2023-12-22T13:12:44;102240.44;;;16.66;100.00
73240;BME280;61452;40.054;4.110;2023-12-22T13:17:47;102248.19;;;16.69;100.00
73240;BME280;61452;40.054;4.110;2023-12-22T13:22:50;102236.91;;;16.66;100.00
73240;BME280;61452;40.054;4.110;2023-12-22T13:27:52;102238.78;;;16.64;100.00
73240;BME280;61452;40.054;4.110;2023-12-22T13:32:55;102238.72;;;16.65;100.00
73240;BME280;61452;40.054;4.110;2023-12-22T13:37:58;102222.88;;;16.64;100.00
73240;BME280;61452;40.054;4.110;2023-12-22T13:43:01;102222.88;;;16.64;100.00
73240;BME280;61452;40.054;4.110;2023-12-22T13:48:06;102225.28;;;16.68;100.00
73240;BME280;61452;40.054;4.110;2023-12-22T13:53:09;102222.56;;;16.70;100.00
73240;BME280;61452;40.054;4.110;2023-12-22T13:58:11;102227.06;;;16.68;100.00
73240;BME280;61452;40.054;4.110;2023-12-22T14:03:14;102223.66;;;16.66;100.00
73240;BME280;61452;40.054;4.110;2023-12-22T14:08:19;102236.75;;;16.69;100.00
73240;BME280;61452;40.054;4.110;2023-12-22T14:13:21;102237.59;;;16.69;100.00
73240;BME280;61452;40.054;4.110;2023-12-22T14:18:23;102245.56;;;16.69;100.00
73240;BME280;61452;40.054;4.110;2023-12-22T14:23:25;102240.19;;;16.71;100.00
73240;BME280;61452;40.054;4.110;2023-12-22T14:28:27;102250.78;;;16.71;100.00
73240;BME280;61452;40.054;4.110;2023-12-22T14:33:30;102241.19;;;16.68;100.00
73240;BME280;61452;40.054;4.110;2023-12-22T14:38:32;102240.31;;;16.68;100.00
73240;BME280;61452;40.054;4.110;2023-12-22T14:43:34;102250.00;;;16.69;100.00
73240;BME280;61452;40.054;4.110;2023-12-22T14:48:36;102251.72;;;16.70;100.00
73240;BME280;61452;40.054;4.110;2023-12-22T14:53:38;102251.63;;;16.71;100.00
73240;BME280;61452;40.054;4.110;2023-12-22T14:58:41;102240.19;;;16.71;100.00
73240;BME280;61452;40.054;4.110;2023-12-22T15:03:43;102253.25;;;16.74;100.00
73240;BME280;61452;40.054;4.110;2023-12-22T15:08:45;102249.75;;;16.73;100.00
73240;BME280;61452;40.054;4.110;2023-12-22T15:13:48;102239.31;;;16.70;100.00
73240;BME280;61452;40.054;4.110;2023-12-22T15:18:50;102230.50;;;16.70;100.00
73240;BME280;61452;40.054;4.110;2023-12-22T15:23:52;102227.78;;;16.71;100.00
73240;BME280;61452;40.054;4.110;2023-12-22T15:28:55;102246.25;;;16.73;100.00
73240;BME280;61452;40.054;4.110;2023-12-22T15:33:57;102237.38;;;16.74;100.00
73240;BME280;61452;40.054;4.110;2023-12-22T15:38:59;102231.13;;;16.75;100.00
73240;BME280;61452;40.054;4.110;2023-12-22T15:44:01;102224.13;;;16.74;100.00
73240;BME280;61452;40.054;4.110;2023-12-22T15:49:04;102224.13;;;16.74;100.00
73240;BME280;61452;40.054;4.110;2023-12-22T15:54:07;102227.63;;;16.74;100.00
73240;BME280;61452;40.054;4.110;2023-12-22T15:59:10;102218.81;;;16.74;100.00
73240;BME280;61452;40.054;4.110;2023-12-22T16:04:13;102221.56;;;16.72;100.00
73240;BME280;61452;40.054;4.110;2023-12-22T16:09:15;102228.56;;;16.73;100.00
73240;BME280;61452;40.054;4.110;2023-12-22T16:14:17;102226.75;;;16.74;100.00
73240;BME280;61452;40.054;4.110;2023-12-22T16:19:19;102221.47;;;16.74;100.00
73240;BME280;61452;40.054;4.110;2023-12-22T16:24:21;102224.22;;;16.72;100.00
73240;BME280;61452;40.054;4.110;2023-12-22T16:29:24;102209.16;;;16.73;100.00
73240;BME280;61452;40.054;4.110;2023-12-22T16:34:26;102218.91;;;16.72;100.00
73240;BME280;61452;40.054;4.110;2023-12-22T16:39:28;102226.00;;;16.72;100.00
73240;BME280;61452;40.054;4.110;2023-12-22T16:44:30;102233.97;;;16.72;100.00
73240;BME280;61452;40.054;4.110;2023-12-22T16:49:32;102231.06;;;16.76;100.00
73240;BME280;61452;40.054;4.110;2023-12-22T16:54:34;102229.41;;;16.74;100.00
73240;BME280;61452;40.054;4.110;2023-12-22T16:59:36;102237.38;;;16.74;100.00
73240;BME280;61452;40.054;4.110;2023-12-22T17:04:38;102228.56;;;16.73;100.00
73240;BME280;61452;40.054;4.110;2023-12-22T17:09:41;102226.00;;;16.72;100.00
73240;BME280;61452;40.054;4.110;2023-12-22T17:14:43;102222.50;;;16.71;100.00
73240;BME280;61452;40.054;4.110;2023-12-22T17:19:45;102232.16;;;16.72;100.00
73240;BME280;61452;40.054;4.110;2023-12-22T17:24:47;102232.84;;;16.76;100.00
73240;BME280;61452;40.054;4.110;2023-12-22T17:29:49;102245.25;;;16.75;100.00
73240;BME280;61452;40.054;4.110;2023-12-22T17:34:52;102240.88;;;16.74;100.00
73240;BME280;61452;40.054;4.110;2023-12-22T17:39:54;102245.31;;;16.74;100.00
73240;BME280;61452;40.054;4.110;2023-12-22T17:44:57;102242.75;;;16.72;100.00
73240;BME280;61452;40.054;4.110;2023-12-22T17:49:59;102247.09;;;16.73;100.00
73240;BME280;61452;40.054;4.110;2023-12-22T17:55:01;102245.31;;;16.74;100.00
73240;BME280;61452;40.054;4.110;2023-12-22T18:00:03;102251.41;;;16.76;100.00
73240;BME280;61452;40.054;4.110;2023-12-22T18:05:08;102259.34;;;16.76;100.00
73240;BME280;61452;40.054;4.110;2023-12-22T18:10:10;102268.22;;;16.75;100.00
73240;BME280;61452;40.054;4.110;2023-12-22T18:15:12;102275.38;;;16.73;100.00
73240;BME280;61452;40.054;4.110;2023-12-22T18:20:14;102273.59;;;16.73;100.00
73240;BME280;61452;40.054;4.110;2023-12-22T18:25:17;102282.50;;;16.72;100.00
73240;BME280;61452;40.054;4.110;2023-12-22T18:30:19;102289.59;;;16.72;100.00
73240;BME280;61452;40.054;4.110;2023-12-22T18:35:22;102307.28;;;16.71;100.00
73240;BME280;61452;40.054;4.110;2023-12-22T18:40:24;102312.41;;;16.74;100.00
73240;BME280;61452;40.054;4.110;2023-12-22T18:45:26;102324.91;;;16.72;100.00
73240;BME280;61452;40.054;4.110;2023-12-22T18:50:28;102328.38;;;16.73;100.00
73240;BME280;61452;40.054;4.110;2023-12-22T18:55:30;102339.94;;;16.72;100.00
73240;BME280;61452;40.054;4.110;2023-12-22T19:00:32;102340.81;;;16.72;100.00
73240;BME280;61452;40.054;4.110;2023-12-22T19:05:34;102347.78;;;16.73;100.00
73240;BME280;61452;40.054;4.110;2023-12-22T19:10:37;102352.22;;;16.73;100.00
73240;BME280;61452;40.054;4.110;2023-12-22T19:15:39;102355.66;;;16.75;100.00
73240;BME280;61452;40.054;4.110;2023-12-22T19:20:42;102366.34;;;16.73;100.00
73240;BME280;61452;40.054;4.110;2023-12-22T19:25:45;102372.59;;;16.72;100.00
73240;BME280;61452;40.054;4.110;2023-12-22T19:30:47;102361.13;;;16.72;100.00
73240;BME280;61452;40.054;4.110;2023-12-22T19:35:49;102368.22;;;16.71;100.00
73240;BME280;61452;40.054;4.110;2023-12-22T19:40:51;102360.28;;;16.71;100.00
73240;BME280;61452;40.054;4.110;2023-12-22T19:45:56;102356.59;;;16.74;100.00
73240;BME280;61452;40.054;4.110;2023-12-22T19:50:59;102364.47;;;16.75;100.00
73240;BME280;61452;40.054;4.110;2023-12-22T19:56:01;102355.66;;;16.75;100.00
73240;BME280;61452;40.054;4.110;2023-12-22T20:01:05;102348.75;;;16.72;100.00
73240;BME280;61452;40.054;4.110;2023-12-22T20:06:08;102368.91;;;16.75;100.00
73240;BME280;61452;40.054;4.110;2023-12-22T20:11:14;102366.34;;;16.73;100.00
73240;BME280;61452;40.054;4.110;2023-12-22T20:16:16;102358.38;;;16.73;100.00
73240;BME280;61452;40.054;4.110;2023-12-22T20:21:20;102369.00;;;16.73;100.00
73240;BME280;61452;40.054;4.110;2023-12-22T20:26:22;102368.84;;;16.76;100.00
73240;BME280;61452;40.054;4.110;2023-12-22T20:31:24;102357.75;;;16.68;100.00
73240;BME280;61452;40.054;4.110;2023-12-22T20:36:26;102373.53;;;16.71;100.00
73240;BME280;61452;40.054;4.110;2023-12-22T20:41:28;102370.88;;;16.71;100.00
73240;BME280;61452;40.054;4.110;2023-12-22T20:46:30;102373.59;;;16.70;100.00
73240;BME280;61452;40.054;4.110;2023-12-22T20:51:39;102370.94;;;16.70;100.00
73240;BME280;61452;40.054;4.110;2023-12-22T20:56:41;102362.94;;;16.71;100.00
73240;BME280;61452;40.054;4.110;2023-12-22T21:01:47;102369.94;;;16.72;100.00
73240;BME280;61452;40.054;4.110;2023-12-22T21:06:50;102375.94;;;16.76;100.00
73240;BME280;61452;40.054;4.110;2023-12-22T21:11:54;102377.91;;;16.72;100.00
73240;BME280;61452;40.054;4.110;2023-12-22T21:16:56;102379.69;;;16.72;100.00
73240;BME280;61452;40.054;4.110;2023-12-22T21:21:58;102385.97;;;16.69;100.00
73240;BME280;61452;40.054;4.110;2023-12-22T21:27:00;102387.69;;;16.70;100.00
73240;BME280;61452;40.054;4.110;2023-12-22T21:32:02;102386.78;;;16.71;100.00
73240;BME280;61452;40.054;4.110;2023-12-22T21:37:05;102372.59;;;16.72;100.00
73240;BME280;61452;40.054;4.110;2023-12-22T21:42:07;102371.72;;;16.72;100.00
73240;BME280;61452;40.054;4.110;2023-12-22T21:47:09;102372.66;;;16.71;100.00
73240;BME280;61452;40.054;4.110;2023-12-22T21:52:12;102376.25;;;16.70;100.00
73240;BME280;61452;40.054;4.110;2023-12-22T21:57:14;102384.19;;;16.70;100.00
73240;BME280;61452;40.054;4.110;2023-12-22T22:02:16;102386.91;;;16.68;100.00
73240;BME280;61452;40.054;4.110;2023-12-22T22:07:18;102389.56;;;16.68;100.00
73240;BME280;61452;40.054;4.110;2023-12-22T22:12:20;102382.34;;;16.72;100.00
73240;BME280;61452;40.054;4.110;2023-12-22T22:17:23;102387.69;;;16.70;100.00
73240;BME280;61452;40.054;4.110;2023-12-22T22:22:25;102390.41;;;16.69;100.00
73240;BME280;61452;40.054;4.110;2023-12-22T22:27:30;102394.84;;;16.68;100.00
73240;BME280;61452;40.054;4.110;2023-12-22T22:32:32;102386.91;;;16.68;100.00
73240;BME280;61452;40.054;4.110;2023-12-22T22:37:35;102387.75;;;16.69;100.00
73240;BME280;61452;40.054;4.110;2023-12-22T22:42:37;102388.63;;;16.69;100.00
73240;BME280;61452;40.054;4.110;2023-12-22T22:47:39;102397.38;;;16.71;100.00
73240;BME280;61452;40.054;4.110;2023-12-22T22:52:41;102389.50;;;16.70;100.00
73240;BME280;61452;40.054;4.110;2023-12-22T22:57:43;102391.16;;;16.72;100.00
73240;BME280;61452;40.054;4.110;2023-12-22T23:02:45;102395.78;;;16.67;100.00
73240;BME280;61452;40.054;4.110;2023-12-22T23:07:48;102391.44;;;16.66;100.00
73240;BME280;61452;40.054;4.110;2023-12-22T23:12:51;102386.16;;;16.66;100.00
73240;BME280;61452;40.054;4.110;2023-12-22T23:17:53;102390.59;;;16.66;100.00
73240;BME280;61452;40.054;4.110;2023-12-22T23:22:55;102390.41;;;16.69;100.00
73240;BME280;61452;40.054;4.110;2023-12-22T23:27:58;102378.88;;;16.70;100.00
73240;BME280;61452;40.054;4.110;2023-12-22T23:33:00;102382.53;;;16.67;100.00
73240;BME280;61452;40.054;4.110;2023-12-22T23:38:02;102376.31;;;16.68;100.00
73240;BME280;61452;40.054;4.110;2023-12-22T23:43:04;102380.84;;;16.66;100.00
73240;BME280;61452;40.054;4.110;2023-12-22T23:48:06;102386.03;;;16.68;100.00
73240;BME280;61452;40.054;4.110;2023-12-22T23:53:09;102386.84;;;16.70;100.00
73240;BME280;61452;40.054;4.110;2023-12-22T23:58:12;102386.78;;;16.71;100.00
